This is the latest recevied weather packets stored in our database for station/object DO7ZT-13. If no packets are shown the sender has not sent any weather packets the latest 10 day(s).
| Time | Temp. | Humidity | Pressure | Rain* | Wind** | Luminosity | Snow |
|---|---|---|---|---|---|---|---|
| 1777682712 | 6.11° C | 74% | 1025.1 hPa | 0 mm | 0.45 m/s, 126° | - | - |
| 1777682424 | 6.11° C | 75% | 1025.1 hPa | 0 mm | 0.45 m/s, 126° | - | - |
| 1777682111 | 7.22° C | 75% | 1025.1 hPa | 0 mm | 0.45 m/s, 126° | - | - |
| 1777681824 | 7.22° C | 71% | 1025.2 hPa | 0 mm | 0 m/s | - | - |
| 1777681511 | 7.22° C | 73% | 1025.2 hPa | 0 mm | 0.89 m/s, 120° | - | - |
| 1777681224 | 7.22° C | 75% | 1025.2 hPa | 0 mm | 0.45 m/s, 139° | - | - |
| 1777680911 | 7.78° C | 71% | 1025.2 hPa | 0 mm | 0.89 m/s, 126° | - | - |
| 1777680624 | 7.78° C | 68% | 1025.2 hPa | 0 mm | 0 m/s | - | - |
| 1777680311 | 7.22° C | 69% | 1025.2 hPa | 0 mm | 0.45 m/s, 120° | - | - |
| 1777680036 | 7.22° C | 72% | 1025.3 hPa | 0 mm | 0 m/s | - | - |
| 1777679724 | 7.22° C | 72% | 1025.3 hPa | 0 mm | 0.45 m/s, 126° | - | - |
| 1777679411 | 7.22° C | 74% | 1025.3 hPa | 0 mm | 0.89 m/s, 132° | - | - |
| 1777679124 | 7.22° C | 73% | 1025.4 hPa | 0 mm | 0.45 m/s, 126° | - | - |
| 1777678524 | 7.22° C | 73% | 1025.4 hPa | 0 mm | 0.89 m/s, 120° | - | - |
| 1777678212 | 7.78° C | 71% | 1025.5 hPa | 0 mm | 0.45 m/s, 114° | - | - |
| 1777677924 | 7.22° C | 71% | 1025.5 hPa | 0 mm | 0.45 m/s, 108° | - | - |
| 1777677611 | 7.78° C | 71% | 1025.5 hPa | 0 mm | 0.45 m/s, 108° | - | - |
| 1777677324 | 7.22° C | 68% | 1025.5 hPa | 0 mm | 0 m/s | - | - |
| 1777677011 | 7.78° C | 69% | 1025.5 hPa | 0 mm | 0.45 m/s, 108° | - | - |
| 1777676724 | 7.22° C | 70% | 1025.5 hPa | 0 mm | 0.45 m/s, 108° | - | - |
| 1777676411 | 7.22° C | 71% | 1025.5 hPa | 0 mm | 0.89 m/s, 120° | - | - |
| 1777676124 | 7.22° C | 73% | 1025.5 hPa | 0 mm | 0.45 m/s, 132° | - | - |
| 1777675811 | 7.22° C | 74% | 1025.5 hPa | 0 mm | 0.89 m/s, 150° | - | - |
| 1777675524 | 7.22° C | 72% | 1025.4 hPa | 0 mm | 0.89 m/s, 155° | - | - |
| 1777675211 | 8.89° C | 64% | 1025.4 hPa | 0 mm | 0 m/s | - | - |
* Rain latest hour (hover to see other rain measurements)
** Current wind speed in m/s (hover to see current wind gust speed)